sensor_id;sensor_type;location;lat;lon;timestamp;P1;durP1;ratioP1;P2;durP2;ratioP2
9892;SDS011;4985;49.092;8.542;2023-08-17T00:00:18;3.97;;;2.40;;
9892;SDS011;4985;49.092;8.542;2023-08-17T00:02:45;2.05;;;1.73;;
9892;SDS011;4985;49.092;8.542;2023-08-17T00:05:11;1.98;;;1.70;;
9892;SDS011;4985;49.092;8.542;2023-08-17T00:07:38;1.73;;;1.42;;
9892;SDS011;4985;49.092;8.542;2023-08-17T00:10:05;3.85;;;1.50;;
9892;SDS011;4985;49.092;8.542;2023-08-17T00:12:32;2.50;;;1.50;;
9892;SDS011;4985;49.092;8.542;2023-08-17T00:15:00;2.85;;;1.80;;
9892;SDS011;4985;49.092;8.542;2023-08-17T00:17:26;3.00;;;1.80;;
9892;SDS011;4985;49.092;8.542;2023-08-17T00:19:53;1.70;;;1.55;;
9892;SDS011;4985;49.092;8.542;2023-08-17T00:22:19;2.30;;;1.70;;
9892;SDS011;4985;49.092;8.542;2023-08-17T00:24:46;1.70;;;1.30;;
9892;SDS011;4985;49.092;8.542;2023-08-17T00:27:12;2.70;;;1.60;;
9892;SDS011;4985;49.092;8.542;2023-08-17T00:29:39;2.78;;;1.50;;
9892;SDS011;4985;49.092;8.542;2023-08-17T00:32:07;1.83;;;1.40;;
9892;SDS011;4985;49.092;8.542;2023-08-17T00:34:33;3.40;;;1.80;;
9892;SDS011;4985;49.092;8.542;2023-08-17T00:37:00;2.37;;;1.60;;
9892;SDS011;4985;49.092;8.542;2023-08-17T00:39:26;2.17;;;1.48;;
9892;SDS011;4985;49.092;8.542;2023-08-17T00:41:53;1.48;;;1.30;;
9892;SDS011;4985;49.092;8.542;2023-08-17T00:44:19;1.42;;;1.25;;
9892;SDS011;4985;49.092;8.542;2023-08-17T00:46:46;2.00;;;1.50;;
9892;SDS011;4985;49.092;8.542;2023-08-17T00:49:14;2.22;;;1.60;;
9892;SDS011;4985;49.092;8.542;2023-08-17T00:51:41;5.25;;;1.92;;
9892;SDS011;4985;49.092;8.542;2023-08-17T00:54:08;2.60;;;1.58;;
9892;SDS011;4985;49.092;8.542;2023-08-17T00:56:36;3.28;;;1.70;;
9892;SDS011;4985;49.092;8.542;2023-08-17T00:59:03;2.70;;;1.60;;
9892;SDS011;4985;49.092;8.542;2023-08-17T01:01:30;2.10;;;1.40;;
9892;SDS011;4985;49.092;8.542;2023-08-17T01:03:57;3.25;;;1.70;;
9892;SDS011;4985;49.092;8.542;2023-08-17T01:06:25;2.67;;;1.98;;
9892;SDS011;4985;49.092;8.542;2023-08-17T01:08:52;3.42;;;1.62;;
9892;SDS011;4985;49.092;8.542;2023-08-17T01:11:20;1.70;;;1.30;;
9892;SDS011;4985;49.092;8.542;2023-08-17T01:13:55;2.92;;;1.62;;
9892;SDS011;4985;49.092;8.542;2023-08-17T01:16:29;2.22;;;1.50;;
9892;SDS011;4985;49.092;8.542;2023-08-17T01:18:59;1.75;;;1.60;;
9892;SDS011;4985;49.092;8.542;2023-08-17T01:21:29;2.03;;;1.37;;
9892;SDS011;4985;49.092;8.542;2023-08-17T01:24:05;2.15;;;1.60;;
9892;SDS011;4985;49.092;8.542;2023-08-17T01:26:32;1.85;;;1.50;;
9892;SDS011;4985;49.092;8.542;2023-08-17T01:28:58;3.35;;;1.50;;
9892;SDS011;4985;49.092;8.542;2023-08-17T01:31:27;2.05;;;1.60;;
9892;SDS011;4985;49.092;8.542;2023-08-17T01:33:58;1.77;;;1.58;;
9892;SDS011;4985;49.092;8.542;2023-08-17T01:36:30;1.95;;;1.75;;
9892;SDS011;4985;49.092;8.542;2023-08-17T01:38:59;2.60;;;1.80;;
9892;SDS011;4985;49.092;8.542;2023-08-17T01:41:29;2.25;;;1.85;;
9892;SDS011;4985;49.092;8.542;2023-08-17T01:43:56;4.43;;;1.70;;
9892;SDS011;4985;49.092;8.542;2023-08-17T01:46:29;4.70;;;1.50;;
9892;SDS011;4985;49.092;8.542;2023-08-17T01:48:57;2.17;;;1.87;;
9892;SDS011;4985;49.092;8.542;2023-08-17T01:51:23;2.03;;;1.60;;
9892;SDS011;4985;49.092;8.542;2023-08-17T01:53:51;3.37;;;1.85;;
9892;SDS011;4985;49.092;8.542;2023-08-17T01:56:17;7.53;;;2.08;;
9892;SDS011;4985;49.092;8.542;2023-08-17T01:58:45;3.62;;;1.90;;
9892;SDS011;4985;49.092;8.542;2023-08-17T02:01:12;1.73;;;1.55;;
9892;SDS011;4985;49.092;8.542;2023-08-17T02:03:38;2.03;;;1.58;;
9892;SDS011;4985;49.092;8.542;2023-08-17T02:06:05;3.20;;;1.50;;
9892;SDS011;4985;49.092;8.542;2023-08-17T02:08:32;2.15;;;1.50;;
9892;SDS011;4985;49.092;8.542;2023-08-17T02:11:00;2.22;;;1.73;;
9892;SDS011;4985;49.092;8.542;2023-08-17T02:13:26;3.03;;;1.60;;
9892;SDS011;4985;49.092;8.542;2023-08-17T02:15:54;2.85;;;1.65;;
9892;SDS011;4985;49.092;8.542;2023-08-17T02:18:21;2.58;;;1.67;;
9892;SDS011;4985;49.092;8.542;2023-08-17T02:20:47;2.28;;;1.70;;
9892;SDS011;4985;49.092;8.542;2023-08-17T02:23:14;3.55;;;1.70;;
9892;SDS011;4985;49.092;8.542;2023-08-17T02:25:41;2.70;;;1.67;;
9892;SDS011;4985;49.092;8.542;2023-08-17T02:28:07;4.80;;;1.80;;
9892;SDS011;4985;49.092;8.542;2023-08-17T02:30:34;5.37;;;1.75;;
9892;SDS011;4985;49.092;8.542;2023-08-17T02:33:02;3.80;;;1.90;;
9892;SDS011;4985;49.092;8.542;2023-08-17T02:35:29;4.12;;;1.65;;
9892;SDS011;4985;49.092;8.542;2023-08-17T02:37:56;2.47;;;1.85;;
9892;SDS011;4985;49.092;8.542;2023-08-17T02:40:22;2.50;;;2.00;;
9892;SDS011;4985;49.092;8.542;2023-08-17T02:42:49;2.70;;;2.00;;
9892;SDS011;4985;49.092;8.542;2023-08-17T02:45:15;3.33;;;1.70;;
9892;SDS011;4985;49.092;8.542;2023-08-17T02:47:42;2.53;;;1.80;;
9892;SDS011;4985;49.092;8.542;2023-08-17T02:50:10;2.85;;;1.67;;
9892;SDS011;4985;49.092;8.542;2023-08-17T02:52:36;2.42;;;1.58;;
9892;SDS011;4985;49.092;8.542;2023-08-17T02:55:03;2.20;;;1.30;;
9892;SDS011;4985;49.092;8.542;2023-08-17T02:57:31;3.28;;;1.90;;
9892;SDS011;4985;49.092;8.542;2023-08-17T02:59:57;4.85;;;1.73;;
9892;SDS011;4985;49.092;8.542;2023-08-17T03:02:24;24.83;;;2.22;;
9892;SDS011;4985;49.092;8.542;2023-08-17T03:04:50;1.98;;;1.55;;
9892;SDS011;4985;49.092;8.542;2023-08-17T03:07:18;3.25;;;1.45;;
9892;SDS011;4985;49.092;8.542;2023-08-17T03:09:45;3.22;;;1.70;;
9892;SDS011;4985;49.092;8.542;2023-08-17T03:12:11;3.35;;;1.83;;
9892;SDS011;4985;49.092;8.542;2023-08-17T03:14:38;2.30;;;1.70;;
9892;SDS011;4985;49.092;8.542;2023-08-17T03:17:04;2.85;;;1.67;;
9892;SDS011;4985;49.092;8.542;2023-08-17T03:19:31;2.05;;;1.45;;
9892;SDS011;4985;49.092;8.542;2023-08-17T03:21:58;2.35;;;1.80;;
9892;SDS011;4985;49.092;8.542;2023-08-17T03:24:26;2.62;;;1.70;;
9892;SDS011;4985;49.092;8.542;2023-08-17T03:26:52;3.00;;;1.77;;
9892;SDS011;4985;49.092;8.542;2023-08-17T03:29:19;6.28;;;2.22;;
9892;SDS011;4985;49.092;8.542;2023-08-17T03:31:45;4.40;;;1.90;;
9892;SDS011;4985;49.092;8.542;2023-08-17T03:34:12;3.50;;;1.62;;
9892;SDS011;4985;49.092;8.542;2023-08-17T03:36:38;2.50;;;1.60;;
9892;SDS011;4985;49.092;8.542;2023-08-17T03:39:05;4.75;;;2.05;;
9892;SDS011;4985;49.092;8.542;2023-08-17T03:41:33;4.70;;;2.17;;
9892;SDS011;4985;49.092;8.542;2023-08-17T03:44:01;2.30;;;1.90;;
9892;SDS011;4985;49.092;8.542;2023-08-17T03:46:28;3.92;;;1.77;;
9892;SDS011;4985;49.092;8.542;2023-08-17T03:48:55;3.67;;;2.28;;
9892;SDS011;4985;49.092;8.542;2023-08-17T03:51:21;4.60;;;2.45;;
9892;SDS011;4985;49.092;8.542;2023-08-17T03:53:48;3.15;;;2.00;;
9892;SDS011;4985;49.092;8.542;2023-08-17T03:56:15;3.50;;;2.30;;
9892;SDS011;4985;49.092;8.542;2023-08-17T03:58:42;3.90;;;2.50;;
9892;SDS011;4985;49.092;8.542;2023-08-17T04:01:09;2.62;;;2.28;;
9892;SDS011;4985;49.092;8.542;2023-08-17T04:03:36;5.25;;;2.25;;
9892;SDS011;4985;49.092;8.542;2023-08-17T04:06:06;2.45;;;2.25;;
9892;SDS011;4985;49.092;8.542;2023-08-17T04:08:35;5.68;;;2.55;;
9892;SDS011;4985;49.092;8.542;2023-08-17T04:11:01;6.40;;;2.70;;
9892;SDS011;4985;49.092;8.542;2023-08-17T04:13:28;4.03;;;2.62;;
9892;SDS011;4985;49.092;8.542;2023-08-17T04:15:56;4.50;;;2.60;;
9892;SDS011;4985;49.092;8.542;2023-08-17T04:18:22;3.58;;;2.20;;
9892;SDS011;4985;49.092;8.542;2023-08-17T04:20:49;4.47;;;2.53;;
9892;SDS011;4985;49.092;8.542;2023-08-17T04:23:16;3.55;;;2.40;;
9892;SDS011;4985;49.092;8.542;2023-08-17T04:25:43;2.90;;;2.40;;
9892;SDS011;4985;49.092;8.542;2023-08-17T04:28:10;2.95;;;2.45;;
9892;SDS011;4985;49.092;8.542;2023-08-17T04:30:37;4.00;;;2.08;;
9892;SDS011;4985;49.092;8.542;2023-08-17T04:33:05;5.53;;;2.30;;
9892;SDS011;4985;49.092;8.542;2023-08-17T04:35:32;4.75;;;2.40;;
9892;SDS011;4985;49.092;8.542;2023-08-17T04:37:59;2.65;;;2.12;;
9892;SDS011;4985;49.092;8.542;2023-08-17T04:40:26;3.05;;;2.28;;
9892;SDS011;4985;49.092;8.542;2023-08-17T04:42:53;2.75;;;2.20;;
9892;SDS011;4985;49.092;8.542;2023-08-17T04:45:20;2.60;;;2.05;;
9892;SDS011;4985;49.092;8.542;2023-08-17T04:47:46;4.15;;;2.12;;
9892;SDS011;4985;49.092;8.542;2023-08-17T04:50:14;2.95;;;2.40;;
9892;SDS011;4985;49.092;8.542;2023-08-17T04:52:41;3.50;;;2.33;;
9892;SDS011;4985;49.092;8.542;2023-08-17T04:55:08;4.37;;;2.20;;
9892;SDS011;4985;49.092;8.542;2023-08-17T04:57:35;2.70;;;2.05;;
9892;SDS011;4985;49.092;8.542;2023-08-17T05:00:01;2.72;;;2.28;;
9892;SDS011;4985;49.092;8.542;2023-08-17T05:02:29;5.05;;;2.60;;
9892;SDS011;4985;49.092;8.542;2023-08-17T05:04:56;5.85;;;2.47;;
9892;SDS011;4985;49.092;8.542;2023-08-17T05:07:24;4.05;;;2.90;;
9892;SDS011;4985;49.092;8.542;2023-08-17T05:09:50;6.85;;;2.55;;
9892;SDS011;4985;49.092;8.542;2023-08-17T05:12:17;3.80;;;2.92;;
9892;SDS011;4985;49.092;8.542;2023-08-17T05:14:43;3.70;;;3.00;;
9892;SDS011;4985;49.092;8.542;2023-08-17T05:17:10;4.93;;;3.20;;
9892;SDS011;4985;49.092;8.542;2023-08-17T05:19:37;4.78;;;2.75;;
9892;SDS011;4985;49.092;8.542;2023-08-17T05:22:05;3.97;;;2.80;;
9892;SDS011;4985;49.092;8.542;2023-08-17T05:24:33;6.00;;;2.78;;
9892;SDS011;4985;49.092;8.542;2023-08-17T05:26:59;4.82;;;2.92;;
9892;SDS011;4985;49.092;8.542;2023-08-17T05:29:26;3.72;;;2.83;;
9892;SDS011;4985;49.092;8.542;2023-08-17T05:31:53;3.65;;;3.00;;
9892;SDS011;4985;49.092;8.542;2023-08-17T05:34:19;5.25;;;3.42;;
9892;SDS011;4985;49.092;8.542;2023-08-17T05:36:46;5.68;;;3.55;;
9892;SDS011;4985;49.092;8.542;2023-08-17T05:39:12;4.47;;;3.67;;
9892;SDS011;4985;49.092;8.542;2023-08-17T05:41:40;7.25;;;3.75;;
9892;SDS011;4985;49.092;8.542;2023-08-17T05:44:07;5.10;;;4.07;;
9892;SDS011;4985;49.092;8.542;2023-08-17T05:46:34;7.05;;;3.40;;
9892;SDS011;4985;49.092;8.542;2023-08-17T05:49:01;5.07;;;3.60;;
9892;SDS011;4985;49.092;8.542;2023-08-17T05:51:28;4.65;;;3.12;;
9892;SDS011;4985;49.092;8.542;2023-08-17T05:53:55;7.25;;;3.30;;
9892;SDS011;4985;49.092;8.542;2023-08-17T05:56:22;5.05;;;3.55;;
9892;SDS011;4985;49.092;8.542;2023-08-17T05:58:50;4.45;;;3.28;;
9892;SDS011;4985;49.092;8.542;2023-08-17T06:01:16;6.87;;;3.55;;
9892;SDS011;4985;49.092;8.542;2023-08-17T06:03:43;4.55;;;3.22;;
9892;SDS011;4985;49.092;8.542;2023-08-17T06:06:10;5.75;;;3.42;;
9892;SDS011;4985;49.092;8.542;2023-08-17T06:08:37;4.78;;;3.67;;
9892;SDS011;4985;49.092;8.542;2023-08-17T06:11:04;5.07;;;3.17;;
9892;SDS011;4985;49.092;8.542;2023-08-17T06:13:30;4.47;;;3.15;;
9892;SDS011;4985;49.092;8.542;2023-08-17T06:15:58;4.78;;;3.50;;
9892;SDS011;4985;49.092;8.542;2023-08-17T06:18:25;5.75;;;3.22;;
9892;SDS011;4985;49.092;8.542;2023-08-17T06:20:51;4.70;;;3.17;;
9892;SDS011;4985;49.092;8.542;2023-08-17T06:23:18;6.75;;;3.65;;
9892;SDS011;4985;49.092;8.542;2023-08-17T06:25:45;5.87;;;3.90;;
9892;SDS011;4985;49.092;8.542;2023-08-17T06:28:12;4.90;;;3.78;;
9892;SDS011;4985;49.092;8.542;2023-08-17T06:30:38;4.40;;;3.47;;
9892;SDS011;4985;49.092;8.542;2023-08-17T06:33:06;4.87;;;3.37;;
9892;SDS011;4985;49.092;8.542;2023-08-17T06:35:33;4.37;;;3.47;;
9892;SDS011;4985;49.092;8.542;2023-08-17T06:38:00;5.57;;;3.03;;
9892;SDS011;4985;49.092;8.542;2023-08-17T06:40:26;5.15;;;2.65;;
9892;SDS011;4985;49.092;8.542;2023-08-17T06:42:53;7.28;;;2.83;;
9892;SDS011;4985;49.092;8.542;2023-08-17T06:45:20;3.67;;;3.00;;
9892;SDS011;4985;49.092;8.542;2023-08-17T06:47:47;4.68;;;3.47;;
9892;SDS011;4985;49.092;8.542;2023-08-17T06:50:16;6.62;;;3.95;;
9892;SDS011;4985;49.092;8.542;2023-08-17T06:52:42;4.22;;;3.40;;
9892;SDS011;4985;49.092;8.542;2023-08-17T06:55:09;5.47;;;4.15;;
9892;SDS011;4985;49.092;8.542;2023-08-17T06:57:36;5.15;;;3.75;;
9892;SDS011;4985;49.092;8.542;2023-08-17T07:00:03;6.57;;;3.67;;
9892;SDS011;4985;49.092;8.542;2023-08-17T07:02:31;6.68;;;3.67;;
9892;SDS011;4985;49.092;8.542;2023-08-17T07:04:59;6.47;;;3.87;;
9892;SDS011;4985;49.092;8.542;2023-08-17T07:07:27;6.10;;;4.10;;
9892;SDS011;4985;49.092;8.542;2023-08-17T07:09:53;5.97;;;4.12;;
9892;SDS011;4985;49.092;8.542;2023-08-17T07:12:20;10.05;;;4.68;;
9892;SDS011;4985;49.092;8.542;2023-08-17T07:14:48;6.57;;;4.57;;
9892;SDS011;4985;49.092;8.542;2023-08-17T07:17:15;6.60;;;4.22;;
9892;SDS011;4985;49.092;8.542;2023-08-17T07:19:42;8.35;;;4.45;;
9892;SDS011;4985;49.092;8.542;2023-08-17T07:22:08;6.70;;;4.53;;
9892;SDS011;4985;49.092;8.542;2023-08-17T07:24:37;5.53;;;4.53;;
9892;SDS011;4985;49.092;8.542;2023-08-17T07:27:03;7.55;;;4.70;;
9892;SDS011;4985;49.092;8.542;2023-08-17T07:29:30;7.00;;;5.03;;
9892;SDS011;4985;49.092;8.542;2023-08-17T07:31:57;6.37;;;4.40;;
9892;SDS011;4985;49.092;8.542;2023-08-17T07:34:26;5.03;;;3.65;;
9892;SDS011;4985;49.092;8.542;2023-08-17T07:36:53;8.70;;;4.30;;
9892;SDS011;4985;49.092;8.542;2023-08-17T07:39:19;5.57;;;4.50;;
9892;SDS011;4985;49.092;8.542;2023-08-17T07:41:47;6.60;;;3.97;;
9892;SDS011;4985;49.092;8.542;2023-08-17T07:44:14;6.22;;;4.35;;
9892;SDS011;4985;49.092;8.542;2023-08-17T07:46:41;6.00;;;4.05;;
9892;SDS011;4985;49.092;8.542;2023-08-17T07:49:07;6.37;;;4.35;;
9892;SDS011;4985;49.092;8.542;2023-08-17T07:51:34;6.25;;;4.20;;
9892;SDS011;4985;49.092;8.542;2023-08-17T07:54:01;7.07;;;4.62;;
9892;SDS011;4985;49.092;8.542;2023-08-17T07:56:28;7.25;;;4.32;;
9892;SDS011;4985;49.092;8.542;2023-08-17T07:58:55;4.93;;;4.25;;
9892;SDS011;4985;49.092;8.542;2023-08-17T08:01:22;5.65;;;4.35;;
9892;SDS011;4985;49.092;8.542;2023-08-17T08:03:49;5.80;;;4.53;;
9892;SDS011;4985;49.092;8.542;2023-08-17T08:06:16;7.22;;;4.93;;
9892;SDS011;4985;49.092;8.542;2023-08-17T08:08:45;9.25;;;4.53;;
9892;SDS011;4985;49.092;8.542;2023-08-17T08:11:12;5.57;;;4.65;;
9892;SDS011;4985;49.092;8.542;2023-08-17T08:13:38;7.28;;;4.43;;
9892;SDS011;4985;49.092;8.542;2023-08-17T08:16:06;8.35;;;4.90;;
9892;SDS011;4985;49.092;8.542;2023-08-17T08:18:33;5.07;;;4.18;;
9892;SDS011;4985;49.092;8.542;2023-08-17T08:20:59;6.25;;;4.68;;
9892;SDS011;4985;49.092;8.542;2023-08-17T08:23:26;6.50;;;4.78;;
9892;SDS011;4985;49.092;8.542;2023-08-17T08:25:53;6.87;;;4.75;;
9892;SDS011;4985;49.092;8.542;2023-08-17T08:28:19;6.53;;;4.60;;
9892;SDS011;4985;49.092;8.542;2023-08-17T08:30:46;8.57;;;5.30;;
9892;SDS011;4985;49.092;8.542;2023-08-17T08:33:14;5.37;;;4.72;;
9892;SDS011;4985;49.092;8.542;2023-08-17T08:35:40;5.70;;;4.80;;
9892;SDS011;4985;49.092;8.542;2023-08-17T08:38:07;5.35;;;4.12;;
9892;SDS011;4985;49.092;8.542;2023-08-17T08:40:33;6.55;;;4.45;;
9892;SDS011;4985;49.092;8.542;2023-08-17T08:43:04;5.53;;;4.05;;
9892;SDS011;4985;49.092;8.542;2023-08-17T08:45:30;5.37;;;4.05;;
9892;SDS011;4985;49.092;8.542;2023-08-17T08:47:57;5.75;;;3.90;;
9892;SDS011;4985;49.092;8.542;2023-08-17T08:50:29;5.22;;;4.28;;
9892;SDS011;4985;49.092;8.542;2023-08-17T08:52:58;8.75;;;4.28;;
9892;SDS011;4985;49.092;8.542;2023-08-17T08:55:26;4.80;;;3.47;;
9892;SDS011;4985;49.092;8.542;2023-08-17T08:57:55;7.05;;;4.50;;
9892;SDS011;4985;49.092;8.542;2023-08-17T09:00:22;6.40;;;4.25;;
9892;SDS011;4985;49.092;8.542;2023-08-17T09:02:50;5.28;;;4.53;;
9892;SDS011;4985;49.092;8.542;2023-08-17T09:05:18;5.22;;;3.92;;
9892;SDS011;4985;49.092;8.542;2023-08-17T09:07:46;7.00;;;4.45;;
9892;SDS011;4985;49.092;8.542;2023-08-17T09:10:14;5.45;;;4.22;;
9892;SDS011;4985;49.092;8.542;2023-08-17T09:12:42;4.70;;;4.05;;
9892;SDS011;4985;49.092;8.542;2023-08-17T09:15:09;9.48;;;4.07;;
9892;SDS011;4985;49.092;8.542;2023-08-17T09:17:36;6.80;;;3.83;;
9892;SDS011;4985;49.092;8.542;2023-08-17T09:20:03;6.62;;;4.62;;
9892;SDS011;4985;49.092;8.542;2023-08-17T09:22:38;7.10;;;4.68;;
9892;SDS011;4985;49.092;8.542;2023-08-17T09:25:08;6.07;;;3.90;;
9892;SDS011;4985;49.092;8.542;2023-08-17T09:27:35;4.07;;;3.58;;
9892;SDS011;4985;49.092;8.542;2023-08-17T09:30:02;5.45;;;3.90;;
9892;SDS011;4985;49.092;8.542;2023-08-17T09:32:31;6.50;;;4.28;;
9892;SDS011;4985;49.092;8.542;2023-08-17T09:35:00;4.78;;;3.83;;
9892;SDS011;4985;49.092;8.542;2023-08-17T09:37:27;5.22;;;4.15;;
9892;SDS011;4985;49.092;8.542;2023-08-17T09:39:53;7.00;;;5.78;;
9892;SDS011;4985;49.092;8.542;2023-08-17T09:42:22;6.93;;;4.60;;
9892;SDS011;4985;49.092;8.542;2023-08-17T09:44:50;7.75;;;4.30;;
9892;SDS011;4985;49.092;8.542;2023-08-17T09:47:17;6.50;;;4.37;;
9892;SDS011;4985;49.092;8.542;2023-08-17T09:49:47;6.80;;;4.72;;
9892;SDS011;4985;49.092;8.542;2023-08-17T09:52:14;6.32;;;4.55;;
9892;SDS011;4985;49.092;8.542;2023-08-17T09:54:41;6.40;;;4.30;;
9892;SDS011;4985;49.092;8.542;2023-08-17T09:57:08;4.90;;;3.90;;
9892;SDS011;4985;49.092;8.542;2023-08-17T09:59:37;5.93;;;4.70;;
9892;SDS011;4985;49.092;8.542;2023-08-17T10:02:04;8.15;;;5.12;;
9892;SDS011;4985;49.092;8.542;2023-08-17T10:04:42;6.25;;;4.70;;
9892;SDS011;4985;49.092;8.542;2023-08-17T10:07:14;5.82;;;4.07;;
9892;SDS011;4985;49.092;8.542;2023-08-17T10:09:42;4.93;;;4.35;;
9892;SDS011;4985;49.092;8.542;2023-08-17T10:12:13;5.43;;;4.45;;
9892;SDS011;4985;49.092;8.542;2023-08-17T10:14:45;7.82;;;4.50;;
9892;SDS011;4985;49.092;8.542;2023-08-17T10:17:18;6.45;;;5.07;;
9892;SDS011;4985;49.092;8.542;2023-08-17T10:19:49;10.80;;;5.00;;
9892;SDS011;4985;49.092;8.542;2023-08-17T10:22:19;6.10;;;4.47;;
9892;SDS011;4985;49.092;8.542;2023-08-17T10:24:52;5.80;;;4.60;;
9892;SDS011;4985;49.092;8.542;2023-08-17T10:27:20;5.12;;;4.12;;
9892;SDS011;4985;49.092;8.542;2023-08-17T10:29:48;5.30;;;4.30;;
9892;SDS011;4985;49.092;8.542;2023-08-17T10:32:17;5.28;;;4.50;;
9892;SDS011;4985;49.092;8.542;2023-08-17T10:34:43;5.85;;;4.50;;
9892;SDS011;4985;49.092;8.542;2023-08-17T10:37:11;5.22;;;3.92;;
9892;SDS011;4985;49.092;8.542;2023-08-17T10:39:42;4.90;;;4.20;;
9892;SDS011;4985;49.092;8.542;2023-08-17T10:42:11;4.32;;;3.78;;
9892;SDS011;4985;49.092;8.542;2023-08-17T10:44:39;6.32;;;4.87;;
9892;SDS011;4985;49.092;8.542;2023-08-17T10:47:24;6.68;;;5.10;;
9892;SDS011;4985;49.092;8.542;2023-08-17T10:49:56;5.05;;;4.40;;
9892;SDS011;4985;49.092;8.542;2023-08-17T10:52:25;5.22;;;4.50;;
9892;SDS011;4985;49.092;8.542;2023-08-17T10:54:56;5.25;;;4.75;;
9892;SDS011;4985;49.092;8.542;2023-08-17T10:57:28;5.07;;;3.87;;
9892;SDS011;4985;49.092;8.542;2023-08-17T11:00:08;6.45;;;4.10;;
9892;SDS011;4985;49.092;8.542;2023-08-17T11:02:44;5.80;;;3.97;;
9892;SDS011;4985;49.092;8.542;2023-08-17T11:05:11;6.90;;;4.68;;
9892;SDS011;4985;49.092;8.542;2023-08-17T11:07:39;6.82;;;4.47;;
9892;SDS011;4985;49.092;8.542;2023-08-17T11:10:12;5.68;;;4.80;;
9892;SDS011;4985;49.092;8.542;2023-08-17T11:12:53;6.12;;;4.55;;
9892;SDS011;4985;49.092;8.542;2023-08-17T11:15:22;5.15;;;4.47;;
9892;SDS011;4985;49.092;8.542;2023-08-17T11:17:50;7.65;;;5.12;;
9892;SDS011;4985;49.092;8.542;2023-08-17T11:20:17;5.60;;;4.90;;
9892;SDS011;4985;49.092;8.542;2023-08-17T11:22:44;5.62;;;4.30;;
9892;SDS011;4985;49.092;8.542;2023-08-17T11:25:12;6.20;;;5.60;;
9892;SDS011;4985;49.092;8.542;2023-08-17T11:27:39;7.97;;;5.07;;
9892;SDS011;4985;49.092;8.542;2023-08-17T11:30:06;6.05;;;5.07;;
9892;SDS011;4985;49.092;8.542;2023-08-17T11:32:34;7.15;;;5.57;;
9892;SDS011;4985;49.092;8.542;2023-08-17T11:35:02;8.00;;;5.78;;
9892;SDS011;4985;49.092;8.542;2023-08-17T11:37:29;7.15;;;5.35;;
9892;SDS011;4985;49.092;8.542;2023-08-17T11:39:56;7.22;;;5.25;;
9892;SDS011;4985;49.092;8.542;2023-08-17T11:42:22;6.18;;;5.43;;
9892;SDS011;4985;49.092;8.542;2023-08-17T11:44:49;5.60;;;5.00;;
9892;SDS011;4985;49.092;8.542;2023-08-17T11:47:16;7.90;;;5.10;;
9892;SDS011;4985;49.092;8.542;2023-08-17T11:49:43;6.22;;;4.68;;
9892;SDS011;4985;49.092;8.542;2023-08-17T11:52:14;4.90;;;4.40;;
9892;SDS011;4985;49.092;8.542;2023-08-17T11:54:41;6.05;;;5.22;;
9892;SDS011;4985;49.092;8.542;2023-08-17T11:57:08;4.95;;;4.47;;
9892;SDS011;4985;49.092;8.542;2023-08-17T11:59:34;7.15;;;5.62;;
9892;SDS011;4985;49.092;8.542;2023-08-17T12:02:01;8.13;;;5.90;;
9892;SDS011;4985;49.092;8.542;2023-08-17T12:04:28;5.45;;;4.90;;
9892;SDS011;4985;49.092;8.542;2023-08-17T12:06:54;6.37;;;4.93;;
9892;SDS011;4985;49.092;8.542;2023-08-17T12:09:22;8.18;;;5.40;;
9892;SDS011;4985;49.092;8.542;2023-08-17T12:11:53;6.07;;;5.40;;
9892;SDS011;4985;49.092;8.542;2023-08-17T12:14:25;6.75;;;5.50;;
9892;SDS011;4985;49.092;8.542;2023-08-17T12:16:52;5.53;;;4.82;;
9892;SDS011;4985;49.092;8.542;2023-08-17T12:19:19;6.43;;;4.90;;
9892;SDS011;4985;49.092;8.542;2023-08-17T12:21:47;5.32;;;4.60;;
9892;SDS011;4985;49.092;8.542;2023-08-17T12:24:14;5.20;;;4.25;;
9892;SDS011;4985;49.092;8.542;2023-08-17T12:26:42;6.82;;;4.40;;
9892;SDS011;4985;49.092;8.542;2023-08-17T12:29:11;5.93;;;4.60;;
9892;SDS011;4985;49.092;8.542;2023-08-17T12:31:38;9.30;;;5.03;;
9892;SDS011;4985;49.092;8.542;2023-08-17T12:34:04;6.03;;;5.30;;
9892;SDS011;4985;49.092;8.542;2023-08-17T12:36:31;8.93;;;5.18;;
9892;SDS011;4985;49.092;8.542;2023-08-17T12:38:58;6.40;;;5.12;;
9892;SDS011;4985;49.092;8.542;2023-08-17T12:41:25;7.25;;;5.43;;
9892;SDS011;4985;49.092;8.542;2023-08-17T12:43:53;7.65;;;5.60;;
9892;SDS011;4985;49.092;8.542;2023-08-17T12:46:19;6.10;;;4.78;;
9892;SDS011;4985;49.092;8.542;2023-08-17T12:48:46;5.90;;;5.37;;
9892;SDS011;4985;49.092;8.542;2023-08-17T12:51:13;7.57;;;5.22;;
9892;SDS011;4985;49.092;8.542;2023-08-17T12:53:40;7.90;;;5.82;;
9892;SDS011;4985;49.092;8.542;2023-08-17T12:56:07;7.18;;;5.40;;
9892;SDS011;4985;49.092;8.542;2023-08-17T12:58:34;6.55;;;5.82;;
9892;SDS011;4985;49.092;8.542;2023-08-17T13:01:02;7.28;;;5.93;;
9892;SDS011;4985;49.092;8.542;2023-08-17T13:03:29;7.82;;;6.03;;
9892;SDS011;4985;49.092;8.542;2023-08-17T13:05:55;7.60;;;5.87;;
9892;SDS011;4985;49.092;8.542;2023-08-17T13:08:22;7.78;;;6.20;;
9892;SDS011;4985;49.092;8.542;2023-08-17T13:10:49;8.48;;;6.65;;
9892;SDS011;4985;49.092;8.542;2023-08-17T13:13:15;6.62;;;5.72;;
9892;SDS011;4985;49.092;8.542;2023-08-17T13:15:42;7.90;;;5.95;;
9892;SDS011;4985;49.092;8.542;2023-08-17T13:18:10;9.10;;;6.75;;
9892;SDS011;4985;49.092;8.542;2023-08-17T13:20:37;7.80;;;6.25;;
9892;SDS011;4985;49.092;8.542;2023-08-17T13:23:05;7.87;;;6.87;;
9892;SDS011;4985;49.092;8.542;2023-08-17T13:25:31;9.20;;;7.05;;
9892;SDS011;4985;49.092;8.542;2023-08-17T13:27:58;8.55;;;6.97;;
9892;SDS011;4985;49.092;8.542;2023-08-17T13:30:25;6.95;;;6.25;;
9892;SDS011;4985;49.092;8.542;2023-08-17T13:32:51;8.95;;;6.47;;
9892;SDS011;4985;49.092;8.542;2023-08-17T13:35:19;7.53;;;6.50;;
9892;SDS011;4985;49.092;8.542;2023-08-17T13:37:50;7.05;;;6.35;;
9892;SDS011;4985;49.092;8.542;2023-08-17T13:40:18;7.37;;;5.97;;
9892;SDS011;4985;49.092;8.542;2023-08-17T13:42:45;7.62;;;6.28;;
9892;SDS011;4985;49.092;8.542;2023-08-17T13:45:11;7.32;;;6.03;;
9892;SDS011;4985;49.092;8.542;2023-08-17T13:47:38;10.10;;;6.97;;
9892;SDS011;4985;49.092;8.542;2023-08-17T13:50:05;7.43;;;6.10;;
9892;SDS011;4985;49.092;8.542;2023-08-17T13:52:33;9.13;;;6.18;;
9892;SDS011;4985;49.092;8.542;2023-08-17T13:55:00;8.02;;;6.45;;
9892;SDS011;4985;49.092;8.542;2023-08-17T13:57:27;6.85;;;6.00;;
9892;SDS011;4985;49.092;8.542;2023-08-17T13:59:53;8.10;;;6.53;;
9892;SDS011;4985;49.092;8.542;2023-08-17T14:02:20;9.23;;;6.15;;
9892;SDS011;4985;49.092;8.542;2023-08-17T14:04:47;8.60;;;6.82;;
9892;SDS011;4985;49.092;8.542;2023-08-17T14:07:13;8.75;;;5.97;;
9892;SDS011;4985;49.092;8.542;2023-08-17T14:09:41;8.73;;;6.60;;
9892;SDS011;4985;49.092;8.542;2023-08-17T14:12:08;9.52;;;6.57;;
9892;SDS011;4985;49.092;8.542;2023-08-17T14:14:35;6.85;;;6.07;;
9892;SDS011;4985;49.092;8.542;2023-08-17T14:17:01;7.85;;;6.53;;
9892;SDS011;4985;49.092;8.542;2023-08-17T14:19:28;6.60;;;5.90;;
9892;SDS011;4985;49.092;8.542;2023-08-17T14:21:54;7.47;;;6.72;;
9892;SDS011;4985;49.092;8.542;2023-08-17T14:24:21;7.53;;;5.43;;
9892;SDS011;4985;49.092;8.542;2023-08-17T14:26:49;7.68;;;6.40;;
9892;SDS011;4985;49.092;8.542;2023-08-17T14:29:15;8.43;;;6.22;;
9892;SDS011;4985;49.092;8.542;2023-08-17T14:31:42;6.95;;;6.15;;
9892;SDS011;4985;49.092;8.542;2023-08-17T14:34:08;6.87;;;6.10;;
9892;SDS011;4985;49.092;8.542;2023-08-17T14:36:35;8.35;;;6.40;;
9892;SDS011;4985;49.092;8.542;2023-08-17T14:39:02;7.32;;;6.50;;
9892;SDS011;4985;49.092;8.542;2023-08-17T14:41:28;7.82;;;5.70;;
9892;SDS011;4985;49.092;8.542;2023-08-17T14:43:58;6.60;;;5.72;;
9892;SDS011;4985;49.092;8.542;2023-08-17T14:46:25;9.50;;;6.12;;
9892;SDS011;4985;49.092;8.542;2023-08-17T14:48:52;9.50;;;6.50;;
9892;SDS011;4985;49.092;8.542;2023-08-17T14:51:19;6.00;;;5.35;;
9892;SDS011;4985;49.092;8.542;2023-08-17T14:53:45;5.40;;;4.87;;
9892;SDS011;4985;49.092;8.542;2023-08-17T14:56:12;6.65;;;5.65;;
9892;SDS011;4985;49.092;8.542;2023-08-17T14:58:38;7.30;;;5.93;;
9892;SDS011;4985;49.092;8.542;2023-08-17T15:01:06;5.85;;;5.15;;
9892;SDS011;4985;49.092;8.542;2023-08-17T15:03:33;8.68;;;5.18;;
9892;SDS011;4985;49.092;8.542;2023-08-17T15:05:59;6.55;;;5.43;;
9892;SDS011;4985;49.092;8.542;2023-08-17T15:08:26;6.18;;;5.00;;
9892;SDS011;4985;49.092;8.542;2023-08-17T15:10:52;6.90;;;5.10;;
9892;SDS011;4985;49.092;8.542;2023-08-17T15:13:19;5.80;;;5.20;;
9892;SDS011;4985;49.092;8.542;2023-08-17T15:15:47;7.70;;;5.18;;